Aeroporto :
LOGIN :

Iscrizione | Disclaimer

   EN    FR    IT 

 










Sommario :    VFR   VFR Marginale   IFR   IFR Intensivo   IFR Molto Intensivo
Visibilità : 
Base nubi : 
>= 8 km
>= 3000ft
5 / 8 km
1000 / 3000 ft
1500m / 5 km
500 / 1000 ft
800 / 1500m
200 / 500 ft
< 800m
< 200 ft
Simboli :   Temporali  Nebbia  Neve Forte  Precipitazioni Forti  Vento > 20 kt
SIGMETs :   Varie  Temporali  Ghiacco  Turbolenza  Onda orograficha  Ceneri Vulcaniche







- Altitudine del aeroporto : 12 ft
- Codice IATA : NCE
- Carte del aeroporto


LFMN - Nice

ULTIMO METAR :
  • 160730Z 34008KT 9999 FEW040 SCT150 07/01 Q1016 NOSIG

METARs OBSOLETI :
  • 160700Z 33010KT 9999 FEW040 BKN160 07/01 Q1016 NOSIG
  • 160630Z 33010KT 9999 FEW040 BKN120 08/01 Q1016 NOSIG
  • 160600Z 33010KT 9999 FEW050 BKN120 08/01 Q1016 NOSIG
  • 160530Z 33008KT 9999 FEW033 SCT050 BKN120 08/01 Q1016 NOSIG
  • 160500Z 35006KT 330V030 9999 SCT033 BKN120 08/01 Q1017 NOSIG

TAF TAF LFMN
Valido dal 16 a 03 ore il 17 a 09 ore UTC


160200Z 1603/1709 34010KT 9999 BKN060
BECMG 1608/1610 07010KT
PROB30
TEMPO 1610/1612 23010KT
BECMG 1611/1613 RA BKN020
TEMPO 1617/1620 09015G25KT
BECMG 1620/1622 34010KT NSW
TEMPO 1704/1708 20010KT
ATIS : +33 4 93 17 21 16
Nessun NOTAM noto per questo aeroporto.



MetMap, La meteo Aeronautica in un colpo d'occhio ! - Copyright ORBIFLY Dicembre 2007 - Disclaimer

ORBIFLY MET'MAP TEAM :

Programmazione e sviluppo : Alexandra Zaïnal
Concezione e sviluppo : Baudouin d'Aumeries
Co-Programmazione e sviluppo : Marc-Olivier Méhu
Supporto tecnico e logistico : Manuel Goepfert
Aiuto per la traduzione : Arnaldo La Scala

Contatto : metmap@orbifly.com




FONTI E CREDITI :

   NOAA